Pointe-a-Pitre, Guadeloupe
Current Conditions -  °F | °C
As of 8:30 PM on Thursday 18 Dec 2014 (Local Time) from TFFR Reporting Station
Few Clouds Few Clouds  
Wind Chill: 73°   Ceiling: Unl
Heat Index: 73°   Visibility: 6mi
Dew Point: 70°   Wind: 2mph
Humidity: 88%   Direction: NA
Pressure: 29.94"   Gusts: NA
Location:  16.24°N, 61.53°W
Report Text: TFFR 190030Z AUTO VRB02KT 9999 FEW022/// ///TCU 23/21 Q1014
Loading
Personal Weather Stations






























Interactive Weather Map New forecast layout! Learn more

10-Day Weather Forecast

Advertisements
Track Severe Weather on mobile